createdAt,value
2018-01-29T00:01:46.863Z,93.32
2018-01-29T00:04:14.602Z,93.34
2018-01-29T00:06:43.863Z,93.43
2018-01-29T00:09:11.710Z,93.53
2018-01-29T00:11:39.436Z,93.34
2018-01-29T00:14:07.241Z,93.22
2018-01-29T00:16:35.571Z,92.85
2018-01-29T00:19:03.271Z,92.47
2018-01-29T00:21:31.014Z,92.08
2018-01-29T00:23:58.745Z,92.21
2018-01-29T00:26:26.467Z,92.40
2018-01-29T00:28:54.207Z,92.30
2018-01-29T00:31:22.192Z,92.15
2018-01-29T00:33:49.888Z,92.17
2018-01-29T00:36:17.604Z,92.27
2018-01-29T00:38:45.783Z,92.59
2018-01-29T00:41:13.551Z,92.02
2018-01-29T00:43:41.412Z,92.40
2018-01-29T00:46:09.353Z,92.56
2018-01-29T00:48:37.183Z,92.65
2018-01-29T00:51:04.929Z,92.49
2018-01-29T00:53:32.644Z,92.22
2018-01-29T00:56:00.706Z,92.28
2018-01-29T00:58:28.513Z,92.19
2018-01-29T01:00:56.317Z,91.50
2018-01-29T01:03:24.335Z,91.23
2018-01-29T01:05:52.193Z,91.81
2018-01-29T01:08:20.091Z,92.53
2018-01-29T01:10:47.984Z,92.94
2018-01-29T01:13:15.734Z,93.49
2018-01-29T01:15:43.456Z,93.84
2018-01-29T01:18:11.352Z,94.20
2018-01-29T01:20:39.046Z,94.38
2018-01-29T01:23:06.824Z,94.55
2018-01-29T01:25:34.644Z,94.22
2018-01-29T01:28:02.714Z,94.18
2018-01-29T01:30:30.492Z,94.18
2018-01-29T01:32:58.674Z,94.17
2018-01-29T01:35:27.169Z,94.66
2018-01-29T01:37:55.067Z,94.81
2018-01-29T01:40:22.996Z,94.90
2018-01-29T01:42:50.769Z,95.23
2018-01-29T01:45:18.826Z,95.50
2018-01-29T01:47:46.604Z,95.75
2018-01-29T01:50:14.393Z,95.80
2018-01-29T01:52:42.325Z,95.77
2018-01-29T01:55:10.024Z,95.80
2018-01-29T01:57:37.753Z,95.96
2018-01-29T02:00:05.687Z,96.19
2018-01-29T02:02:33.835Z,96.23
2018-01-29T02:05:01.547Z,96.41
2018-01-29T02:07:29.257Z,96.55
2018-01-29T02:09:57.399Z,96.93
2018-01-29T02:12:25.222Z,96.86
2018-01-29T02:14:53.002Z,96.83
2018-01-29T02:17:20.858Z,96.28
2018-01-29T02:19:48.656Z,95.76
2018-01-29T02:22:16.569Z,95.33
2018-01-29T02:24:44.333Z,95.15
2018-01-29T02:27:12.453Z,94.53
2018-01-29T02:29:40.339Z,93.33
2018-01-29T02:32:08.119Z,92.84
2018-01-29T02:34:35.869Z,92.10
2018-01-29T02:37:03.703Z,90.97
2018-01-29T02:39:31.788Z,90.57
2018-01-29T02:41:59.482Z,89.94
2018-01-29T02:44:27.232Z,90.11
2018-01-29T02:46:55.008Z,90.09
2018-01-29T02:49:22.826Z,89.66
2018-01-29T02:51:50.568Z,89.82
2018-01-29T02:54:18.344Z,89.99
2018-01-29T02:56:46.086Z,88.56
2018-01-29T02:59:13.827Z,88.55
2018-01-29T03:01:41.538Z,88.64
2018-01-29T03:04:09.321Z,88.23
2018-01-29T03:06:37.040Z,88.05
2018-01-29T03:09:05.267Z,88.41
2018-01-29T03:11:32.985Z,87.87
2018-01-29T03:14:00.768Z,88.16
2018-01-29T03:16:28.470Z,87.96
2018-01-29T03:18:56.190Z,87.38
2018-01-29T03:21:24.220Z,87.54
2018-01-29T03:23:52.385Z,87.75
2018-01-29T03:26:20.086Z,87.88
2018-01-29T03:28:47.881Z,88.11
2018-01-29T03:31:15.658Z,88.76
2018-01-29T03:33:43.425Z,88.34
2018-01-29T03:36:11.133Z,88.18
2018-01-29T03:38:38.960Z,88.05
2018-01-29T03:41:06.657Z,88.20
2018-01-29T03:43:34.484Z,88.46
2018-01-29T03:46:02.578Z,88.26
2018-01-29T03:48:30.354Z,88.27
2018-01-29T03:50:58.125Z,88.20
2018-01-29T03:53:25.909Z,88.40
2018-01-29T03:55:53.663Z,88.06
2018-01-29T03:58:21.731Z,87.16
2018-01-29T04:00:49.530Z,87.19
2018-01-29T04:03:17.251Z,87.02
2018-01-29T04:05:45.093Z,87.05
2018-01-29T04:08:12.804Z,86.48
2018-01-29T04:10:40.568Z,86.91
2018-01-29T04:13:09.105Z,86.38
2018-01-29T04:15:36.818Z,85.86
2018-01-29T04:18:04.644Z,86.12
2018-01-29T04:20:32.468Z,85.57
2018-01-29T04:23:00.185Z,85.29
2018-01-29T04:25:27.896Z,85.27
2018-01-29T04:27:55.626Z,84.72
2018-01-29T04:30:23.333Z,84.64
2018-01-29T04:32:51.107Z,84.78
2018-01-29T04:35:18.856Z,83.69
2018-01-29T04:37:46.565Z,83.96
2018-01-29T04:40:14.626Z,84.46
2018-01-29T04:42:42.763Z,84.47
2018-01-29T04:45:10.600Z,84.23
2018-01-29T04:47:38.344Z,83.16
2018-01-29T04:50:06.084Z,83.58
2018-01-29T04:52:33.914Z,82.88
2018-01-29T04:55:02.627Z,83.70
2018-01-29T04:57:30.438Z,82.93
2018-01-29T04:59:58.189Z,83.42
2018-01-29T05:02:25.987Z,82.74
2018-01-29T05:04:53.764Z,82.76
2018-01-29T05:07:21.477Z,82.77
2018-01-29T05:09:49.256Z,83.29
2018-01-29T05:12:17.032Z,83.18
2018-01-29T05:14:44.795Z,82.90
2018-01-29T05:17:12.476Z,83.05
2018-01-29T05:19:41.029Z,82.20
2018-01-29T05:22:08.797Z,82.08
2018-01-29T05:24:36.512Z,81.97
2018-01-29T05:27:05.368Z,81.58
2018-01-29T05:29:33.155Z,82.54
2018-01-29T05:32:00.993Z,82.67
2018-01-29T05:34:28.831Z,82.92
2018-01-29T05:40:07.259Z,83.15
2018-01-29T05:42:35.123Z,82.55
2018-01-29T05:45:02.882Z,82.58
2018-01-29T05:47:30.661Z,82.85
2018-01-29T05:49:58.385Z,82.47
2018-01-29T05:52:26.216Z,81.56
2018-01-29T05:54:53.925Z,81.63
2018-01-29T05:57:22.057Z,80.99
2018-01-29T05:59:49.885Z,81.29
2018-01-29T06:02:17.549Z,81.01
2018-01-29T06:04:45.844Z,81.50
2018-01-29T06:07:13.719Z,81.39
2018-01-29T06:09:41.377Z,81.21
2018-01-29T06:12:09.197Z,81.28
2018-01-29T06:14:36.915Z,81.26
2018-01-29T06:17:04.684Z,81.06
2018-01-29T06:19:32.397Z,80.71
2018-01-29T06:22:00.179Z,80.32
2018-01-29T06:24:29.004Z,81.12
2018-01-29T06:26:56.711Z,79.91
2018-01-29T06:29:24.407Z,79.99
2018-01-29T06:31:52.362Z,80.11
2018-01-29T06:34:20.106Z,80.46
2018-01-29T06:36:47.774Z,79.99
2018-01-29T06:39:15.461Z,80.67
2018-01-29T06:41:43.220Z,79.72
2018-01-29T06:44:11.071Z,80.04
2018-01-29T06:46:39.054Z,79.79
2018-01-29T06:49:06.744Z,79.97
2018-01-29T06:51:34.383Z,79.89
2018-01-29T06:54:02.102Z,79.82
2018-01-29T06:56:30.618Z,79.54
2018-01-29T06:58:58.514Z,79.01
2018-01-29T07:01:26.318Z,79.32
2018-01-29T07:03:53.978Z,79.49
2018-01-29T07:06:22.841Z,78.90
2018-01-29T07:08:50.576Z,78.94
2018-01-29T07:11:18.438Z,78.11
2018-01-29T07:13:46.096Z,78.54
2018-01-29T07:16:14.277Z,78.47
2018-01-29T07:18:42.248Z,78.52
2018-01-29T07:21:09.878Z,78.41
2018-01-29T07:23:37.558Z,78.64
2018-01-29T07:26:05.139Z,78.72
2018-01-29T07:28:32.812Z,78.06
2018-01-29T07:31:00.846Z,77.87
2018-01-29T07:33:28.565Z,78.09
2018-01-29T07:35:56.185Z,78.70
2018-01-29T07:38:23.822Z,78.28
2018-01-29T07:40:51.820Z,78.54
2018-01-29T07:43:19.436Z,78.64
2018-01-29T07:45:47.086Z,78.73
2018-01-29T07:48:14.732Z,79.12
2018-01-29T07:50:42.745Z,79.09
2018-01-29T07:53:10.348Z,79.31
2018-01-29T07:55:38.200Z,79.71
2018-01-29T07:58:06.164Z,78.98
2018-01-29T08:00:34.531Z,78.87
2018-01-29T08:03:02.185Z,78.93
2018-01-29T08:05:30.074Z,79.51
2018-01-29T08:07:57.705Z,79.62
2018-01-29T08:10:25.315Z,79.24
2018-01-29T08:12:53.785Z,79.40
2018-01-29T08:15:21.415Z,79.66
2018-01-29T08:17:49.097Z,80.08
2018-01-29T08:20:16.858Z,79.41
2018-01-29T08:22:44.846Z,79.65
2018-01-29T08:25:12.568Z,79.95
2018-01-29T08:27:40.360Z,80.06
2018-01-29T08:30:08.039Z,80.02
2018-01-29T08:32:35.729Z,80.02
2018-01-29T08:35:03.398Z,80.21
2018-01-29T08:37:31.184Z,79.65
2018-01-29T08:39:58.885Z,80.06
2018-01-29T08:42:26.563Z,80.40
2018-01-29T08:44:54.333Z,79.95
2018-01-29T08:47:22.386Z,80.34
2018-01-29T08:49:50.637Z,80.28
2018-01-29T08:52:18.334Z,80.45
2018-01-29T08:54:46.159Z,80.28
2018-01-29T08:57:13.943Z,80.52
2018-01-29T08:59:41.681Z,80.41
2018-01-29T09:02:09.346Z,81.32
2018-01-29T09:04:37.099Z,81.13
2018-01-29T09:07:04.805Z,81.49
2018-01-29T09:09:32.804Z,81.88
2018-01-29T09:12:00.517Z,81.68
2018-01-29T09:14:28.168Z,82.02
2018-01-29T09:16:55.861Z,82.00
2018-01-29T09:19:23.510Z,82.20
2018-01-29T09:21:51.242Z,81.47
2018-01-29T09:24:19.822Z,81.41
2018-01-29T09:26:47.503Z,81.85
2018-01-29T09:29:15.195Z,82.46
2018-01-29T09:31:42.946Z,82.60
2018-01-29T09:34:10.596Z,82.98
2018-01-29T09:36:38.272Z,83.60
2018-01-29T09:39:06.281Z,83.48
2018-01-29T09:41:33.959Z,84.33
2018-01-29T09:44:01.636Z,84.16
2018-01-29T09:46:29.360Z,84.49
2018-01-29T09:48:57.548Z,84.33
2018-01-29T09:51:25.828Z,84.77
2018-01-29T09:53:53.464Z,84.95
2018-01-29T09:56:21.090Z,85.28
2018-01-29T09:58:49.102Z,85.53
2018-01-29T10:01:17.066Z,85.51
2018-01-29T10:03:44.688Z,85.72
2018-01-29T10:06:13.073Z,85.40
2018-01-29T10:08:41.076Z,85.41
2018-01-29T10:11:08.827Z,85.14
2018-01-29T10:13:36.616Z,84.96
2018-01-29T10:16:04.316Z,85.40
2018-01-29T10:18:31.960Z,85.10
2018-01-29T10:20:59.976Z,85.60
2018-01-29T10:23:27.944Z,86.09
2018-01-29T10:25:55.625Z,86.45
2018-01-29T10:28:23.363Z,87.16
2018-01-29T10:30:51.004Z,86.97
2018-01-29T10:33:18.655Z,87.38
2018-01-29T10:35:46.363Z,87.38
2018-01-29T10:38:14.040Z,88.35
2018-01-29T10:40:41.913Z,87.68
2018-01-29T10:43:09.614Z,87.07
2018-01-29T10:45:37.291Z,87.33
2018-01-29T10:48:05.028Z,87.36
2018-01-29T10:50:32.612Z,87.50
2018-01-29T10:53:00.533Z,87.30
2018-01-29T10:55:28.237Z,87.26
2018-01-29T10:57:55.865Z,87.50
2018-01-29T11:00:23.538Z,87.41
2018-01-29T11:02:51.125Z,87.87
2018-01-29T11:05:18.757Z,88.51
2018-01-29T11:07:46.427Z,89.22
2018-01-29T11:10:14.156Z,90.18
2018-01-29T11:12:42.191Z,90.82
2018-01-29T11:15:09.815Z,90.91
2018-01-29T11:17:37.883Z,91.10
2018-01-29T11:20:05.843Z,91.38
2018-01-29T11:22:33.498Z,92.53
2018-01-29T11:25:01.218Z,92.65
2018-01-29T11:27:28.876Z,93.07
2018-01-29T11:29:56.541Z,92.92
2018-01-29T11:32:24.231Z,92.54
2018-01-29T11:34:52.346Z,92.60
2018-01-29T11:37:20.040Z,92.92
2018-01-29T11:39:47.722Z,93.20
2018-01-29T11:42:15.844Z,93.08
2018-01-29T11:44:43.554Z,93.31
2018-01-29T11:47:11.288Z,93.23
2018-01-29T11:49:39.146Z,93.63
2018-01-29T11:52:06.823Z,93.17
2018-01-29T11:54:34.465Z,93.29
2018-01-29T11:57:02.238Z,93.25
2018-01-29T11:59:29.961Z,93.70
2018-01-29T12:01:57.595Z,94.07
2018-01-29T12:04:25.320Z,94.49
2018-01-29T12:06:52.961Z,94.29
2018-01-29T12:09:21.084Z,94.49
2018-01-29T12:11:48.730Z,94.17
2018-01-29T12:14:16.883Z,94.54
2018-01-29T12:16:44.684Z,94.71
2018-01-29T12:19:15.742Z,94.85
2018-01-29T12:21:40.138Z,94.50
2018-01-29T12:24:07.809Z,94.44
2018-01-29T12:26:35.515Z,94.39
2018-01-29T12:29:03.208Z,94.87
2018-01-29T12:31:31.253Z,94.58
2018-01-29T12:33:58.983Z,95.00
2018-01-29T12:36:26.632Z,94.71
2018-01-29T12:38:54.311Z,94.70
2018-01-29T12:41:28.156Z,95.02
2018-01-29T12:43:56.504Z,94.74
2018-01-29T12:46:24.234Z,95.18
2018-01-29T12:48:51.901Z,95.16
2018-01-29T12:51:19.561Z,95.34
2018-01-29T12:53:47.543Z,95.79
2018-01-29T12:56:15.343Z,94.93
2018-01-29T12:58:43.044Z,95.11
2018-01-29T13:01:10.744Z,95.22
2018-01-29T13:03:38.491Z,95.05
2018-01-29T13:06:06.184Z,95.35
2018-01-29T13:08:33.919Z,95.27
2018-01-29T13:11:01.682Z,95.38
2018-01-29T13:13:29.475Z,95.41
2018-01-29T13:15:57.199Z,95.39
2018-01-29T13:18:24.948Z,95.02
2018-01-29T13:20:52.659Z,95.46
2018-01-29T13:23:20.754Z,95.59
2018-01-29T13:25:48.485Z,95.91
2018-01-29T13:28:16.240Z,95.87
2018-01-29T13:30:43.989Z,95.73
2018-01-29T13:33:11.769Z,95.82
2018-01-29T13:35:39.627Z,95.88
2018-01-29T13:38:07.332Z,95.81
2018-01-29T13:40:35.241Z,95.87
2018-01-29T13:43:02.973Z,96.00
2018-01-29T13:45:30.625Z,95.91
2018-01-29T13:47:58.340Z,96.08
2018-01-29T13:50:26.105Z,95.60
2018-01-29T13:52:54.162Z,96.03
2018-01-29T13:55:21.871Z,95.92
2018-01-29T13:57:49.604Z,96.05
2018-01-29T14:00:17.643Z,95.57
2018-01-29T14:02:45.424Z,95.84
2018-01-29T14:05:13.780Z,95.72
2018-01-29T14:07:42.863Z,96.10
2018-01-29T14:10:12.788Z,96.22
2018-01-29T14:12:40.579Z,96.17
2018-01-29T14:15:08.364Z,96.36
2018-01-29T14:17:37.022Z,96.52
2018-01-29T14:20:04.806Z,96.58
2018-01-29T14:22:35.380Z,96.56
2018-01-29T14:25:03.108Z,96.46
2018-01-29T14:27:30.895Z,96.65
2018-01-29T14:29:58.595Z,96.84
2018-01-29T14:32:26.449Z,96.69
2018-01-29T14:34:54.182Z,96.31
2018-01-29T14:37:21.854Z,96.30
2018-01-29T14:39:49.958Z,96.15
2018-01-29T14:42:18.031Z,96.17
2018-01-29T14:44:45.769Z,96.15
2018-01-29T14:47:14.304Z,96.07
2018-01-29T14:49:41.981Z,96.06
2018-01-29T14:52:09.658Z,96.21
2018-01-29T14:54:37.394Z,96.27
2018-01-29T14:57:05.162Z,96.43
2018-01-29T14:59:32.884Z,96.27
2018-01-29T15:02:00.687Z,96.36
2018-01-29T15:04:28.436Z,96.17
2018-01-29T15:06:56.172Z,96.18
2018-01-29T15:09:23.887Z,96.31
2018-01-29T15:11:51.984Z,96.39
2018-01-29T15:14:19.717Z,95.95
2018-01-29T15:16:47.454Z,95.88
2018-01-29T15:19:15.216Z,95.89
2018-01-29T15:21:42.923Z,96.00
2018-01-29T15:24:10.650Z,95.70
2018-01-29T15:26:38.397Z,94.93
2018-01-29T15:29:06.150Z,94.69
2018-01-29T15:31:34.241Z,94.15
2018-01-29T15:34:02.515Z,94.01
2018-01-29T15:36:30.300Z,94.01
2018-01-29T15:38:57.999Z,93.87
2018-01-29T15:41:25.745Z,93.59
2018-01-29T15:43:53.690Z,93.65
2018-01-29T15:46:21.457Z,94.20
2018-01-29T15:48:49.219Z,94.45
2018-01-29T15:51:16.966Z,94.24
2018-01-29T15:53:44.789Z,94.29
2018-01-29T15:56:13.144Z,94.46
2018-01-29T15:58:40.890Z,94.47
2018-01-29T16:01:08.651Z,94.66
2018-01-29T16:03:36.843Z,94.72
2018-01-29T16:06:04.767Z,94.93
2018-01-29T16:08:32.545Z,95.16
2018-01-29T16:11:00.922Z,95.09
2018-01-29T16:13:28.608Z,95.48
2018-01-29T16:15:56.780Z,95.42
2018-01-29T16:18:24.560Z,95.30
2018-01-29T16:20:52.312Z,95.41
2018-01-29T16:23:21.083Z,95.48
2018-01-29T16:25:48.785Z,95.27
2018-01-29T16:28:16.559Z,93.96
2018-01-29T16:30:44.715Z,93.12
2018-01-29T16:33:12.453Z,93.10
2018-01-29T16:35:40.211Z,93.32
2018-01-29T16:38:07.959Z,93.44
2018-01-29T16:40:35.698Z,93.79
2018-01-29T16:43:03.414Z,93.61
2018-01-29T16:45:31.121Z,93.95
2018-01-29T16:47:59.469Z,93.84
2018-01-29T16:50:27.197Z,94.15
2018-01-29T16:52:55.325Z,94.15
2018-01-29T16:55:23.485Z,93.87
2018-01-29T16:57:51.222Z,92.39
2018-01-29T17:00:19.316Z,92.34
2018-01-29T17:02:47.085Z,92.15
2018-01-29T17:05:14.895Z,92.53
2018-01-29T17:07:42.979Z,91.70
2018-01-29T17:10:10.986Z,91.78
2018-01-29T17:12:38.929Z,92.12
2018-01-29T17:15:06.777Z,92.14
2018-01-29T17:17:34.523Z,91.80
2018-01-29T17:20:03.016Z,91.80
2018-01-29T17:22:30.815Z,91.59
2018-01-29T17:24:58.513Z,90.79
2018-01-29T17:27:26.135Z,90.52
2018-01-29T17:29:53.959Z,90.42
2018-01-29T17:32:21.680Z,87.81
2018-01-29T17:34:51.023Z,87.65
2018-01-29T17:37:20.018Z,87.36
2018-01-29T17:39:47.758Z,88.11
2018-01-29T17:42:16.027Z,88.79
2018-01-29T17:44:51.054Z,89.20
2018-01-29T17:47:18.810Z,89.52
2018-01-29T17:49:46.632Z,89.49
2018-01-29T17:52:14.362Z,89.75
2018-01-29T17:54:42.599Z,89.50
2018-01-29T17:57:10.307Z,89.40
2018-01-29T17:59:38.051Z,89.61
2018-01-29T18:02:05.895Z,89.90
2018-01-29T18:04:33.615Z,90.11
2018-01-29T18:07:01.323Z,90.13
2018-01-29T18:09:29.442Z,90.08
2018-01-29T18:11:57.121Z,89.29
2018-01-29T18:14:24.859Z,89.78
2018-01-29T18:16:52.605Z,89.63
2018-01-29T18:19:20.286Z,89.64
2018-01-29T18:21:47.952Z,89.52
2018-01-29T18:24:15.935Z,89.84
2018-01-29T18:26:44.184Z,89.71
2018-01-29T18:29:11.911Z,89.45
2018-01-29T18:31:39.650Z,89.98
2018-01-29T18:34:07.424Z,89.63
2018-01-29T18:36:35.172Z,89.76
2018-01-29T18:39:02.994Z,90.11
2018-01-29T18:41:30.705Z,90.05
2018-01-29T18:43:59.044Z,90.00
2018-01-29T18:46:26.779Z,90.59
2018-01-29T18:48:54.485Z,90.75
2018-01-29T18:51:22.529Z,90.65
2018-01-29T18:53:50.207Z,90.67
2018-01-29T18:56:17.852Z,90.95
2018-01-29T18:58:45.543Z,90.94
2018-01-29T19:01:13.221Z,91.01
2018-01-29T19:03:40.900Z,90.83
2018-01-29T19:06:08.737Z,91.00
2018-01-29T19:08:36.583Z,91.09
2018-01-29T19:11:04.672Z,91.08
2018-01-29T19:13:32.749Z,90.95
2018-01-29T19:16:00.482Z,90.92
2018-01-29T19:18:28.185Z,90.85
2018-01-29T19:20:55.966Z,91.14
2018-01-29T19:23:23.633Z,91.35
2018-01-29T19:25:51.806Z,91.34
2018-01-29T19:28:19.549Z,91.06
2018-01-29T19:30:47.306Z,91.31
2018-01-29T19:33:15.027Z,91.41
2018-01-29T19:35:42.741Z,91.15
2018-01-29T19:38:10.516Z,91.17
2018-01-29T19:40:38.253Z,91.56
2018-01-29T19:43:05.937Z,91.56
2018-01-29T19:45:34.114Z,91.09
2018-01-29T19:48:01.855Z,90.08
2018-01-29T19:50:29.617Z,89.55
2018-01-29T19:52:57.367Z,89.73
2018-01-29T19:55:25.007Z,89.20
2018-01-29T19:57:52.717Z,89.34
2018-01-29T20:00:20.428Z,88.65
2018-01-29T20:02:48.238Z,88.44
2018-01-29T20:05:15.895Z,88.23
2018-01-29T20:07:43.590Z,88.34
2018-01-29T20:10:11.371Z,88.19
2018-01-29T20:12:39.114Z,88.27
2018-01-29T20:15:06.796Z,88.20
2018-01-29T20:17:34.540Z,88.13
2018-01-29T20:20:02.532Z,87.95
2018-01-29T20:22:30.155Z,88.31
2018-01-29T20:24:57.802Z,88.44
2018-01-29T20:27:25.485Z,88.37
2018-01-29T20:29:53.644Z,88.78
2018-01-29T20:32:21.339Z,88.75
2018-01-29T20:34:49.579Z,88.72
2018-01-29T20:37:17.252Z,88.83
2018-01-29T20:39:44.964Z,88.90
2018-01-29T20:42:12.750Z,88.86
2018-01-29T20:44:40.426Z,88.75
2018-01-29T20:47:08.148Z,88.73
2018-01-29T20:49:35.825Z,88.79
2018-01-29T20:52:03.495Z,88.40
2018-01-29T20:54:31.329Z,88.69
2018-01-29T20:56:59.015Z,89.00
2018-01-29T20:59:26.776Z,88.94
2018-01-29T21:01:54.480Z,89.04
2018-01-29T21:04:22.174Z,88.40
2018-01-29T21:06:49.890Z,88.53
2018-01-29T21:09:17.645Z,88.40
2018-01-29T21:11:45.392Z,88.70
2018-01-29T21:14:13.056Z,88.86
2018-01-29T21:16:40.822Z,89.18
2018-01-29T21:19:08.526Z,89.27
2018-01-29T21:21:36.179Z,89.35
2018-01-29T21:24:03.888Z,89.34
2018-01-29T21:26:31.594Z,89.29
2018-01-29T21:28:59.358Z,89.66
2018-01-29T21:31:27.074Z,89.39
2018-01-29T21:33:54.799Z,89.56
2018-01-29T21:36:22.513Z,89.51
2018-01-29T21:38:50.223Z,89.54
2018-01-29T21:41:18.024Z,89.68
2018-01-29T21:43:45.771Z,89.73
2018-01-29T21:46:13.797Z,89.57
2018-01-29T21:48:42.022Z,89.79
2018-01-29T21:51:09.726Z,89.85
2018-01-29T21:53:37.955Z,89.87
2018-01-29T21:56:05.691Z,89.80
2018-01-29T21:58:33.374Z,89.86
2018-01-29T22:01:01.060Z,89.86
2018-01-29T22:03:28.836Z,89.94
2018-01-29T22:05:56.674Z,89.98
2018-01-29T22:08:24.414Z,90.00
2018-01-29T22:10:52.203Z,89.96
2018-01-29T22:13:19.918Z,89.83
2018-01-29T22:15:47.747Z,89.92
2018-01-29T22:18:15.530Z,89.59
2018-01-29T22:20:43.243Z,89.60
2018-01-29T22:23:11.507Z,89.82
2018-01-29T22:25:39.227Z,89.76
2018-01-29T22:28:06.884Z,89.91
2018-01-29T22:30:34.575Z,89.85
2018-01-29T22:33:02.291Z,89.92
2018-01-29T22:35:30.021Z,89.95
2018-01-29T22:37:57.783Z,89.94
2018-01-29T22:40:25.532Z,89.90
2018-01-29T22:42:53.351Z,89.78
2018-01-29T22:45:21.031Z,89.63
2018-01-29T22:47:48.742Z,89.70
2018-01-29T22:50:16.742Z,89.68
2018-01-29T22:52:44.453Z,89.82
2018-01-29T22:55:12.201Z,89.85
2018-01-29T22:57:39.899Z,89.86
2018-01-29T23:00:07.573Z,89.93
2018-01-29T23:02:37.191Z,90.12
2018-01-29T23:05:05.026Z,90.12
2018-01-29T23:07:32.729Z,90.14
2018-01-29T23:10:00.420Z,90.17
2018-01-29T23:12:28.092Z,90.26
2018-01-29T23:14:56.208Z,90.28
2018-01-29T23:17:24.025Z,90.20
2018-01-29T23:19:52.323Z,90.29
2018-01-29T23:22:20.241Z,90.36
2018-01-29T23:24:48.008Z,90.31
2018-01-29T23:27:15.677Z,90.52
2018-01-29T23:29:43.373Z,91.04
2018-01-29T23:32:11.409Z,91.41
2018-01-29T23:34:39.246Z,91.34
2018-01-29T23:37:06.998Z,91.47
2018-01-29T23:39:34.950Z,91.39
2018-01-29T23:42:02.871Z,91.73
2018-01-29T23:44:30.651Z,91.76
2018-01-29T23:46:58.456Z,91.73
2018-01-29T23:49:26.272Z,91.80
2018-01-29T23:51:53.973Z,91.75
2018-01-29T23:54:21.691Z,91.69
2018-01-29T23:56:49.414Z,91.75
2018-01-29T23:59:17.067Z,91.74
